sensor_id;sensor_type;location;lat;lon;timestamp;P1;durP1;ratioP1;P2;durP2;ratioP2
53309;SDS011;39197;53.200;5.792;2024-03-23T00:55:32;21.23;;;2.92;;
53309;SDS011;39197;53.200;5.792;2024-03-23T00:57:57;15.82;;;2.42;;
53309;SDS011;39197;53.200;5.792;2024-03-23T01:00:23;13.75;;;2.45;;
53309;SDS011;39197;53.200;5.792;2024-03-23T01:02:48;17.45;;;3.17;;
53309;SDS011;39197;53.200;5.792;2024-03-23T01:05:14;23.00;;;3.28;;
53309;SDS011;39197;53.200;5.792;2024-03-23T01:07:39;20.83;;;3.72;;
53309;SDS011;39197;53.200;5.792;2024-03-23T01:10:05;18.27;;;3.42;;
53309;SDS011;39197;53.200;5.792;2024-03-23T01:12:31;25.88;;;3.17;;
53309;SDS011;39197;53.200;5.792;2024-03-23T01:14:56;19.75;;;3.15;;
53309;SDS011;39197;53.200;5.792;2024-03-23T01:17:22;30.08;;;4.25;;
53309;SDS011;39197;53.200;5.792;2024-03-23T01:19:48;27.50;;;4.47;;
53309;SDS011;39197;53.200;5.792;2024-03-23T01:22:14;19.23;;;2.72;;
53309;SDS011;39197;53.200;5.792;2024-03-23T01:24:40;15.80;;;2.35;;
53309;SDS011;39197;53.200;5.792;2024-03-23T01:27:06;25.48;;;3.20;;
53309;SDS011;39197;53.200;5.792;2024-03-23T01:29:31;22.77;;;5.57;;
53309;SDS011;39197;53.200;5.792;2024-03-23T01:31:57;24.83;;;4.15;;
53309;SDS011;39197;53.200;5.792;2024-03-23T01:34:22;26.02;;;3.97;;
53309;SDS011;39197;53.200;5.792;2024-03-23T01:36:50;21.85;;;4.28;;
53309;SDS011;39197;53.200;5.792;2024-03-23T01:39:16;19.58;;;3.17;;
53309;SDS011;39197;53.200;5.792;2024-03-23T01:41:41;23.33;;;5.28;;
53309;SDS011;39197;53.200;5.792;2024-03-23T01:44:08;27.35;;;5.70;;
53309;SDS011;39197;53.200;5.792;2024-03-23T01:46:37;15.52;;;3.35;;
53309;SDS011;39197;53.200;5.792;2024-03-23T01:49:07;28.70;;;4.40;;
53309;SDS011;39197;53.200;5.792;2024-03-23T01:51:33;26.83;;;3.70;;
53309;SDS011;39197;53.200;5.792;2024-03-23T01:53:59;20.92;;;2.65;;
53309;SDS011;39197;53.200;5.792;2024-03-23T01:56:31;17.70;;;2.97;;
53309;SDS011;39197;53.200;5.792;2024-03-23T01:59:01;21.15;;;3.22;;
53309;SDS011;39197;53.200;5.792;2024-03-23T02:01:34;17.27;;;2.63;;
53309;SDS011;39197;53.200;5.792;2024-03-23T02:04:03;17.13;;;2.38;;
53309;SDS011;39197;53.200;5.792;2024-03-23T02:06:29;25.77;;;3.13;;
53309;SDS011;39197;53.200;5.792;2024-03-23T02:08:54;26.58;;;4.70;;
53309;SDS011;39197;53.200;5.792;2024-03-23T02:11:20;20.90;;;3.45;;
53309;SDS011;39197;53.200;5.792;2024-03-23T02:13:46;21.52;;;2.63;;
53309;SDS011;39197;53.200;5.792;2024-03-23T02:16:11;20.15;;;3.15;;
53309;SDS011;39197;53.200;5.792;2024-03-23T02:18:38;13.85;;;1.92;;
53309;SDS011;39197;53.200;5.792;2024-03-23T02:21:04;23.10;;;2.70;;
53309;SDS011;39197;53.200;5.792;2024-03-23T02:23:30;20.70;;;2.95;;
53309;SDS011;39197;53.200;5.792;2024-03-23T02:25:55;24.05;;;3.10;;
53309;SDS011;39197;53.200;5.792;2024-03-23T02:28:21;17.80;;;2.38;;
53309;SDS011;39197;53.200;5.792;2024-03-23T02:30:48;20.05;;;2.88;;
53309;SDS011;39197;53.200;5.792;2024-03-23T02:33:14;18.58;;;3.78;;
53309;SDS011;39197;53.200;5.792;2024-03-23T02:35:40;20.25;;;3.20;;
53309;SDS011;39197;53.200;5.792;2024-03-23T02:38:06;16.10;;;4.00;;
53309;SDS011;39197;53.200;5.792;2024-03-23T02:40:31;19.98;;;2.28;;
53309;SDS011;39197;53.200;5.792;2024-03-23T02:42:57;17.98;;;3.50;;
53309;SDS011;39197;53.200;5.792;2024-03-23T02:45:23;19.63;;;3.03;;
53309;SDS011;39197;53.200;5.792;2024-03-23T02:47:49;20.17;;;2.47;;
53309;SDS011;39197;53.200;5.792;2024-03-23T02:50:20;10.23;;;2.13;;
53309;SDS011;39197;53.200;5.792;2024-03-23T02:52:46;11.10;;;1.83;;
53309;SDS011;39197;53.200;5.792;2024-03-23T02:55:12;14.32;;;2.25;;
53309;SDS011;39197;53.200;5.792;2024-03-23T02:57:38;20.48;;;1.85;;
53309;SDS011;39197;53.200;5.792;2024-03-23T03:00:04;10.98;;;1.52;;
53309;SDS011;39197;53.200;5.792;2024-03-23T03:02:32;20.63;;;2.15;;
53309;SDS011;39197;53.200;5.792;2024-03-23T03:04:58;13.38;;;2.17;;
53309;SDS011;39197;53.200;5.792;2024-03-23T03:07:24;16.20;;;2.60;;
53309;SDS011;39197;53.200;5.792;2024-03-23T03:09:49;14.05;;;1.67;;
53309;SDS011;39197;53.200;5.792;2024-03-23T03:12:15;15.10;;;1.95;;
53309;SDS011;39197;53.200;5.792;2024-03-23T03:14:41;14.48;;;2.20;;
53309;SDS011;39197;53.200;5.792;2024-03-23T03:17:06;16.88;;;3.47;;
53309;SDS011;39197;53.200;5.792;2024-03-23T03:19:32;18.23;;;2.47;;
53309;SDS011;39197;53.200;5.792;2024-03-23T03:21:57;20.13;;;2.05;;
53309;SDS011;39197;53.200;5.792;2024-03-23T03:24:23;17.25;;;1.70;;
53309;SDS011;39197;53.200;5.792;2024-03-23T03:26:49;20.95;;;2.20;;
53309;SDS011;39197;53.200;5.792;2024-03-23T03:29:15;19.50;;;2.67;;
53309;SDS011;39197;53.200;5.792;2024-03-23T03:31:40;23.52;;;2.03;;
53309;SDS011;39197;53.200;5.792;2024-03-23T03:34:06;16.85;;;1.70;;
53309;SDS011;39197;53.200;5.792;2024-03-23T03:36:32;14.70;;;1.92;;
53309;SDS011;39197;53.200;5.792;2024-03-23T03:38:58;21.02;;;1.77;;
53309;SDS011;39197;53.200;5.792;2024-03-23T03:41:23;18.55;;;3.03;;
53309;SDS011;39197;53.200;5.792;2024-03-23T03:43:49;15.60;;;1.80;;
53309;SDS011;39197;53.200;5.792;2024-03-23T03:46:15;18.92;;;2.20;;
53309;SDS011;39197;53.200;5.792;2024-03-23T03:48:40;16.85;;;2.28;;
53309;SDS011;39197;53.200;5.792;2024-03-23T03:51:06;14.75;;;1.60;;
53309;SDS011;39197;53.200;5.792;2024-03-23T03:53:31;13.98;;;1.95;;
53309;SDS011;39197;53.200;5.792;2024-03-23T03:56:00;18.85;;;2.72;;
53309;SDS011;39197;53.200;5.792;2024-03-23T03:58:26;22.95;;;2.92;;
53309;SDS011;39197;53.200;5.792;2024-03-23T04:00:52;20.92;;;2.72;;
53309;SDS011;39197;53.200;5.792;2024-03-23T04:03:18;11.25;;;1.63;;
53309;SDS011;39197;53.200;5.792;2024-03-23T04:05:49;21.20;;;2.17;;
53309;SDS011;39197;53.200;5.792;2024-03-23T04:08:19;16.77;;;2.40;;
53309;SDS011;39197;53.200;5.792;2024-03-23T04:10:45;21.38;;;2.42;;
53309;SDS011;39197;53.200;5.792;2024-03-23T04:13:11;18.00;;;2.05;;
53309;SDS011;39197;53.200;5.792;2024-03-23T04:15:37;18.50;;;2.10;;
53309;SDS011;39197;53.200;5.792;2024-03-23T04:18:02;21.67;;;2.22;;
53309;SDS011;39197;53.200;5.792;2024-03-23T04:20:28;24.38;;;3.42;;
53309;SDS011;39197;53.200;5.792;2024-03-23T04:22:54;18.95;;;2.97;;
53309;SDS011;39197;53.200;5.792;2024-03-23T04:25:19;19.30;;;2.67;;
53309;SDS011;39197;53.200;5.792;2024-03-23T04:27:45;16.52;;;2.47;;
53309;SDS011;39197;53.200;5.792;2024-03-23T04:30:11;19.35;;;2.00;;
53309;SDS011;39197;53.200;5.792;2024-03-23T04:32:37;14.45;;;2.30;;
53309;SDS011;39197;53.200;5.792;2024-03-23T04:35:03;12.40;;;1.70;;
53309;SDS011;39197;53.200;5.792;2024-03-23T04:37:34;14.40;;;2.43;;
53309;SDS011;39197;53.200;5.792;2024-03-23T04:40:00;19.77;;;1.73;;
53309;SDS011;39197;53.200;5.792;2024-03-23T04:42:27;13.27;;;1.50;;
53309;SDS011;39197;53.200;5.792;2024-03-23T04:44:53;15.35;;;2.25;;
53309;SDS011;39197;53.200;5.792;2024-03-23T04:47:18;13.60;;;1.30;;
53309;SDS011;39197;53.200;5.792;2024-03-23T04:49:44;15.90;;;1.90;;
53309;SDS011;39197;53.200;5.792;2024-03-23T04:52:10;15.68;;;1.88;;
53309;SDS011;39197;53.200;5.792;2024-03-23T04:54:35;18.73;;;1.75;;
53309;SDS011;39197;53.200;5.792;2024-03-23T04:57:01;18.73;;;2.85;;
53309;SDS011;39197;53.200;5.792;2024-03-23T04:59:26;16.63;;;2.20;;
53309;SDS011;39197;53.200;5.792;2024-03-23T05:01:52;15.13;;;2.92;;
53309;SDS011;39197;53.200;5.792;2024-03-23T05:04:17;17.70;;;3.63;;
53309;SDS011;39197;53.200;5.792;2024-03-23T05:06:43;15.13;;;3.83;;
53309;SDS011;39197;53.200;5.792;2024-03-23T05:09:08;17.58;;;3.00;;
53309;SDS011;39197;53.200;5.792;2024-03-23T05:11:40;16.75;;;3.28;;
53309;SDS011;39197;53.200;5.792;2024-03-23T05:14:10;15.52;;;2.38;;
53309;SDS011;39197;53.200;5.792;2024-03-23T05:16:38;11.43;;;2.25;;
53309;SDS011;39197;53.200;5.792;2024-03-23T05:19:03;14.73;;;1.98;;
53309;SDS011;39197;53.200;5.792;2024-03-23T05:21:29;19.48;;;3.72;;
53309;SDS011;39197;53.200;5.792;2024-03-23T05:23:54;9.50;;;1.20;;
53309;SDS011;39197;53.200;5.792;2024-03-23T05:26:21;12.07;;;2.28;;
53309;SDS011;39197;53.200;5.792;2024-03-23T05:28:47;31.88;;;2.92;;
53309;SDS011;39197;53.200;5.792;2024-03-23T05:31:22;10.25;;;1.67;;
53309;SDS011;39197;53.200;5.792;2024-03-23T05:33:48;19.15;;;1.95;;
53309;SDS011;39197;53.200;5.792;2024-03-23T05:36:14;19.10;;;3.08;;
53309;SDS011;39197;53.200;5.792;2024-03-23T05:38:40;10.82;;;1.20;;
53309;SDS011;39197;53.200;5.792;2024-03-23T05:41:05;12.15;;;1.30;;
53309;SDS011;39197;53.200;5.792;2024-03-23T05:43:31;21.13;;;2.15;;
53309;SDS011;39197;53.200;5.792;2024-03-23T05:45:57;17.10;;;2.40;;
53309;SDS011;39197;53.200;5.792;2024-03-23T05:48:24;11.85;;;1.50;;
53309;SDS011;39197;53.200;5.792;2024-03-23T05:50:55;19.03;;;2.67;;
53309;SDS011;39197;53.200;5.792;2024-03-23T05:53:20;21.23;;;1.98;;
53309;SDS011;39197;53.200;5.792;2024-03-23T05:55:46;15.13;;;1.92;;
53309;SDS011;39197;53.200;5.792;2024-03-23T05:58:15;13.00;;;2.22;;
53309;SDS011;39197;53.200;5.792;2024-03-23T06:00:41;15.98;;;1.70;;
53309;SDS011;39197;53.200;5.792;2024-03-23T06:03:08;11.43;;;2.03;;
53309;SDS011;39197;53.200;5.792;2024-03-23T06:05:34;15.05;;;2.20;;
53309;SDS011;39197;53.200;5.792;2024-03-23T06:07:59;15.57;;;2.03;;
53309;SDS011;39197;53.200;5.792;2024-03-23T06:10:25;18.92;;;1.77;;
53309;SDS011;39197;53.200;5.792;2024-03-23T06:12:50;19.58;;;1.88;;
53309;SDS011;39197;53.200;5.792;2024-03-23T06:15:17;18.05;;;1.98;;
53309;SDS011;39197;53.200;5.792;2024-03-23T06:17:47;20.50;;;2.53;;
53309;SDS011;39197;53.200;5.792;2024-03-23T06:20:13;15.88;;;2.03;;
53309;SDS011;39197;53.200;5.792;2024-03-23T06:22:39;6.97;;;0.82;;
53309;SDS011;39197;53.200;5.792;2024-03-23T06:25:05;6.72;;;1.60;;
53309;SDS011;39197;53.200;5.792;2024-03-23T06:27:31;2.90;;;0.50;;
53309;SDS011;39197;53.200;5.792;2024-03-23T06:29:57;5.72;;;0.75;;
53309;SDS011;39197;53.200;5.792;2024-03-23T06:32:23;8.57;;;0.93;;
53309;SDS011;39197;53.200;5.792;2024-03-23T06:34:49;9.80;;;1.55;;
53309;SDS011;39197;53.200;5.792;2024-03-23T06:37:14;7.43;;;0.82;;
53309;SDS011;39197;53.200;5.792;2024-03-23T06:39:40;9.23;;;0.95;;
53309;SDS011;39197;53.200;5.792;2024-03-23T06:42:06;16.40;;;2.30;;
53309;SDS011;39197;53.200;5.792;2024-03-23T06:44:33;13.68;;;1.20;;
53309;SDS011;39197;53.200;5.792;2024-03-23T06:46:58;11.43;;;1.50;;
53309;SDS011;39197;53.200;5.792;2024-03-23T06:49:24;9.95;;;1.77;;
53309;SDS011;39197;53.200;5.792;2024-03-23T06:51:49;9.30;;;1.67;;
53309;SDS011;39197;53.200;5.792;2024-03-23T06:54:19;12.25;;;1.65;;
53309;SDS011;39197;53.200;5.792;2024-03-23T06:56:45;14.52;;;1.95;;
53309;SDS011;39197;53.200;5.792;2024-03-23T06:59:11;13.35;;;1.98;;
53309;SDS011;39197;53.200;5.792;2024-03-23T07:01:36;11.50;;;1.77;;
53309;SDS011;39197;53.200;5.792;2024-03-23T07:04:02;13.55;;;1.90;;
53309;SDS011;39197;53.200;5.792;2024-03-23T07:06:29;10.15;;;1.33;;
53309;SDS011;39197;53.200;5.792;2024-03-23T07:08:55;10.63;;;1.40;;
53309;SDS011;39197;53.200;5.792;2024-03-23T07:11:23;10.15;;;1.55;;
53309;SDS011;39197;53.200;5.792;2024-03-23T07:13:49;17.10;;;1.80;;
53309;SDS011;39197;53.200;5.792;2024-03-23T07:16:16;9.00;;;1.73;;
53309;SDS011;39197;53.200;5.792;2024-03-23T07:18:42;18.05;;;3.08;;
53309;SDS011;39197;53.200;5.792;2024-03-23T07:21:08;10.90;;;1.52;;
53309;SDS011;39197;53.200;5.792;2024-03-23T07:23:33;11.93;;;1.83;;
53309;SDS011;39197;53.200;5.792;2024-03-23T07:26:03;13.77;;;2.00;;
53309;SDS011;39197;53.200;5.792;2024-03-23T07:28:30;11.88;;;1.73;;
53309;SDS011;39197;53.200;5.792;2024-03-23T07:31:03;13.00;;;2.10;;
53309;SDS011;39197;53.200;5.792;2024-03-23T07:33:34;11.27;;;1.33;;
53309;SDS011;39197;53.200;5.792;2024-03-23T07:36:01;10.52;;;1.23;;
53309;SDS011;39197;53.200;5.792;2024-03-23T07:38:27;13.82;;;1.80;;
53309;SDS011;39197;53.200;5.792;2024-03-23T07:41:09;9.43;;;1.20;;
53309;SDS011;39197;53.200;5.792;2024-03-23T07:46:07;8.10;;;0.95;;
53309;SDS011;39197;53.200;5.792;2024-03-23T07:48:33;11.25;;;1.88;;
53309;SDS011;39197;53.200;5.792;2024-03-23T07:51:00;13.93;;;2.67;;
53309;SDS011;39197;53.200;5.792;2024-03-23T07:53:29;13.40;;;1.55;;
53309;SDS011;39197;53.200;5.792;2024-03-23T07:55:57;12.93;;;1.70;;
53309;SDS011;39197;53.200;5.792;2024-03-23T07:58:24;15.27;;;2.10;;
53309;SDS011;39197;53.200;5.792;2024-03-23T08:00:54;10.48;;;1.55;;
53309;SDS011;39197;53.200;5.792;2024-03-23T08:03:21;10.38;;;1.17;;
53309;SDS011;39197;53.200;5.792;2024-03-23T08:05:47;9.38;;;1.48;;
53309;SDS011;39197;53.200;5.792;2024-03-23T08:08:12;10.15;;;1.58;;
53309;SDS011;39197;53.200;5.792;2024-03-23T08:10:51;10.10;;;1.10;;
53309;SDS011;39197;53.200;5.792;2024-03-23T08:13:17;11.18;;;1.30;;
53309;SDS011;39197;53.200;5.792;2024-03-23T08:15:47;10.23;;;1.48;;
53309;SDS011;39197;53.200;5.792;2024-03-23T08:18:13;13.65;;;2.45;;
53309;SDS011;39197;53.200;5.792;2024-03-23T08:20:40;11.13;;;1.85;;
53309;SDS011;39197;53.200;5.792;2024-03-23T08:23:06;12.65;;;1.65;;
53309;SDS011;39197;53.200;5.792;2024-03-23T08:25:32;12.32;;;1.90;;
53309;SDS011;39197;53.200;5.792;2024-03-23T08:27:58;16.05;;;2.25;;
53309;SDS011;39197;53.200;5.792;2024-03-23T08:30:24;16.67;;;2.15;;
53309;SDS011;39197;53.200;5.792;2024-03-23T08:32:49;13.10;;;1.35;;
53309;SDS011;39197;53.200;5.792;2024-03-23T08:35:15;12.18;;;1.67;;
53309;SDS011;39197;53.200;5.792;2024-03-23T08:37:40;11.75;;;2.00;;
53309;SDS011;39197;53.200;5.792;2024-03-23T08:40:06;11.20;;;1.58;;
53309;SDS011;39197;53.200;5.792;2024-03-23T08:42:33;7.15;;;1.20;;
53309;SDS011;39197;53.200;5.792;2024-03-23T08:44:59;4.88;;;0.47;;
53309;SDS011;39197;53.200;5.792;2024-03-23T08:47:25;6.80;;;0.73;;
53309;SDS011;39197;53.200;5.792;2024-03-23T08:49:50;7.70;;;1.23;;
53309;SDS011;39197;53.200;5.792;2024-03-23T08:52:16;8.15;;;1.48;;
53309;SDS011;39197;53.200;5.792;2024-03-23T08:54:41;8.35;;;1.08;;
53309;SDS011;39197;53.200;5.792;2024-03-23T08:57:10;11.63;;;2.03;;
53309;SDS011;39197;53.200;5.792;2024-03-23T08:59:37;12.55;;;1.70;;
53309;SDS011;39197;53.200;5.792;2024-03-23T09:02:03;9.50;;;1.60;;
53309;SDS011;39197;53.200;5.792;2024-03-23T09:04:29;9.43;;;0.82;;
53309;SDS011;39197;53.200;5.792;2024-03-23T09:06:55;15.45;;;1.35;;
53309;SDS011;39197;53.200;5.792;2024-03-23T09:09:20;11.02;;;1.20;;
53309;SDS011;39197;53.200;5.792;2024-03-23T09:11:47;12.20;;;1.23;;
53309;SDS011;39197;53.200;5.792;2024-03-23T09:14:12;10.75;;;1.27;;
53309;SDS011;39197;53.200;5.792;2024-03-23T09:16:38;14.38;;;2.55;;
53309;SDS011;39197;53.200;5.792;2024-03-23T09:19:04;17.38;;;2.05;;
53309;SDS011;39197;53.200;5.792;2024-03-23T09:21:29;17.27;;;2.03;;
53309;SDS011;39197;53.200;5.792;2024-03-23T09:23:55;22.92;;;2.83;;
53309;SDS011;39197;53.200;5.792;2024-03-23T09:26:20;20.73;;;2.63;;
53309;SDS011;39197;53.200;5.792;2024-03-23T09:28:50;21.25;;;2.08;;
53309;SDS011;39197;53.200;5.792;2024-03-23T09:31:15;14.57;;;2.00;;
53309;SDS011;39197;53.200;5.792;2024-03-23T09:33:41;14.43;;;1.70;;
53309;SDS011;39197;53.200;5.792;2024-03-23T09:36:07;20.13;;;3.58;;
53309;SDS011;39197;53.200;5.792;2024-03-23T09:38:34;10.85;;;1.30;;
53309;SDS011;39197;53.200;5.792;2024-03-23T09:41:00;7.90;;;1.17;;
53309;SDS011;39197;53.200;5.792;2024-03-23T09:43:25;6.60;;;1.10;;
53309;SDS011;39197;53.200;5.792;2024-03-23T09:45:51;14.43;;;2.63;;
53309;SDS011;39197;53.200;5.792;2024-03-23T09:48:18;7.75;;;1.13;;
53309;SDS011;39197;53.200;5.792;2024-03-23T09:50:44;6.00;;;0.90;;
53309;SDS011;39197;53.200;5.792;2024-03-23T09:53:11;7.07;;;0.47;;
53309;SDS011;39197;53.200;5.792;2024-03-23T09:55:41;13.73;;;1.50;;
53309;SDS011;39197;53.200;5.792;2024-03-23T09:58:09;11.75;;;1.63;;
53309;SDS011;39197;53.200;5.792;2024-03-23T10:00:38;9.43;;;1.63;;
53309;SDS011;39197;53.200;5.792;2024-03-23T10:03:04;13.68;;;2.15;;
53309;SDS011;39197;53.200;5.792;2024-03-23T10:05:31;12.00;;;1.48;;
53309;SDS011;39197;53.200;5.792;2024-03-23T10:07:59;11.18;;;1.63;;
53309;SDS011;39197;53.200;5.792;2024-03-23T10:10:25;16.23;;;1.55;;
53309;SDS011;39197;53.200;5.792;2024-03-23T10:12:51;9.32;;;1.75;;
53309;SDS011;39197;53.200;5.792;2024-03-23T10:15:20;11.52;;;1.70;;
53309;SDS011;39197;53.200;5.792;2024-03-23T10:17:47;8.38;;;1.10;;
53309;SDS011;39197;53.200;5.792;2024-03-23T10:20:13;6.50;;;1.10;;
53309;SDS011;39197;53.200;5.792;2024-03-23T10:22:44;6.18;;;0.98;;
53309;SDS011;39197;53.200;5.792;2024-03-23T10:25:11;15.45;;;1.73;;
53309;SDS011;39197;53.200;5.792;2024-03-23T10:27:38;8.57;;;1.67;;
53309;SDS011;39197;53.200;5.792;2024-03-23T10:30:08;11.18;;;1.70;;
53309;SDS011;39197;53.200;5.792;2024-03-23T10:32:35;19.42;;;1.73;;
53309;SDS011;39197;53.200;5.792;2024-03-23T10:35:14;13.25;;;1.38;;
53309;SDS011;39197;53.200;5.792;2024-03-23T10:37:44;13.73;;;1.65;;
53309;SDS011;39197;53.200;5.792;2024-03-23T10:40:11;11.88;;;1.63;;
53309;SDS011;39197;53.200;5.792;2024-03-23T10:42:38;13.45;;;1.73;;
53309;SDS011;39197;53.200;5.792;2024-03-23T10:45:05;11.13;;;1.58;;
53309;SDS011;39197;53.200;5.792;2024-03-23T10:47:34;8.77;;;1.08;;
53309;SDS011;39197;53.200;5.792;2024-03-23T10:50:01;10.95;;;1.48;;
53309;SDS011;39197;53.200;5.792;2024-03-23T10:52:28;8.00;;;1.00;;
53309;SDS011;39197;53.200;5.792;2024-03-23T10:54:54;11.30;;;1.70;;
53309;SDS011;39197;53.200;5.792;2024-03-23T10:57:23;13.75;;;1.33;;
53309;SDS011;39197;53.200;5.792;2024-03-23T10:59:57;14.40;;;1.88;;
53309;SDS011;39197;53.200;5.792;2024-03-23T11:02:23;14.48;;;2.53;;
53309;SDS011;39197;53.200;5.792;2024-03-23T11:04:52;14.27;;;2.10;;
53309;SDS011;39197;53.200;5.792;2024-03-23T11:09:53;13.90;;;1.87;;
53309;SDS011;39197;53.200;5.792;2024-03-23T11:17:27;9.50;;;1.20;;
53309;SDS011;39197;53.200;5.792;2024-03-23T11:22:37;22.13;;;3.58;;
53309;SDS011;39197;53.200;5.792;2024-03-23T11:25:12;7.90;;;1.40;;
53309;SDS011;39197;53.200;5.792;2024-03-23T11:27:39;13.07;;;1.98;;
53309;SDS011;39197;53.200;5.792;2024-03-23T11:30:20;9.90;;;1.50;;
53309;SDS011;39197;53.200;5.792;2024-03-23T11:32:48;8.73;;;1.17;;
53309;SDS011;39197;53.200;5.792;2024-03-23T11:35:31;8.80;;;1.10;;
53309;SDS011;39197;53.200;5.792;2024-03-23T11:38:05;7.40;;;1.05;;
53309;SDS011;39197;53.200;5.792;2024-03-23T11:40:43;7.80;;;0.77;;
53309;SDS011;39197;53.200;5.792;2024-03-23T11:43:20;5.85;;;0.82;;
53309;SDS011;39197;53.200;5.792;2024-03-23T11:45:48;7.75;;;0.90;;
53309;SDS011;39197;53.200;5.792;2024-03-23T11:48:18;9.82;;;1.65;;
53309;SDS011;39197;53.200;5.792;2024-03-23T11:50:55;14.18;;;2.35;;
53309;SDS011;39197;53.200;5.792;2024-03-23T11:53:23;15.95;;;1.88;;
53309;SDS011;39197;53.200;5.792;2024-03-23T11:55:52;16.65;;;1.50;;
53309;SDS011;39197;53.200;5.792;2024-03-23T11:58:19;15.80;;;2.47;;
53309;SDS011;39197;53.200;5.792;2024-03-23T12:00:52;17.23;;;3.15;;
53309;SDS011;39197;53.200;5.792;2024-03-23T12:03:22;13.77;;;1.50;;
53309;SDS011;39197;53.200;5.792;2024-03-23T12:05:51;13.88;;;2.33;;
53309;SDS011;39197;53.200;5.792;2024-03-23T12:08:24;19.92;;;2.40;;
53309;SDS011;39197;53.200;5.792;2024-03-23T12:11:05;12.07;;;1.38;;
53309;SDS011;39197;53.200;5.792;2024-03-23T12:13:31;8.00;;;1.20;;
53309;SDS011;39197;53.200;5.792;2024-03-23T12:16:09;12.52;;;1.52;;
53309;SDS011;39197;53.200;5.792;2024-03-23T12:18:35;12.07;;;1.75;;
53309;SDS011;39197;53.200;5.792;2024-03-23T12:21:05;10.20;;;1.38;;
53309;SDS011;39197;53.200;5.792;2024-03-23T12:23:32;16.58;;;2.22;;
53309;SDS011;39197;53.200;5.792;2024-03-23T12:25:58;10.30;;;1.80;;
53309;SDS011;39197;53.200;5.792;2024-03-23T12:28:23;9.80;;;1.17;;
53309;SDS011;39197;53.200;5.792;2024-03-23T12:30:50;21.98;;;2.50;;
53309;SDS011;39197;53.200;5.792;2024-03-23T12:33:17;22.38;;;2.20;;
53309;SDS011;39197;53.200;5.792;2024-03-23T12:35:43;12.77;;;1.80;;
53309;SDS011;39197;53.200;5.792;2024-03-23T12:38:08;10.45;;;1.30;;
53309;SDS011;39197;53.200;5.792;2024-03-23T12:40:34;31.08;;;2.55;;
53309;SDS011;39197;53.200;5.792;2024-03-23T12:42:59;10.20;;;0.88;;
53309;SDS011;39197;53.200;5.792;2024-03-23T12:45:25;9.45;;;1.58;;
53309;SDS011;39197;53.200;5.792;2024-03-23T12:47:51;8.65;;;1.48;;
53309;SDS011;39197;53.200;5.792;2024-03-23T12:50:20;7.13;;;1.27;;
53309;SDS011;39197;53.200;5.792;2024-03-23T12:52:46;8.35;;;1.25;;
53309;SDS011;39197;53.200;5.792;2024-03-23T12:55:12;10.40;;;1.60;;
53309;SDS011;39197;53.200;5.792;2024-03-23T12:57:37;9.55;;;1.45;;
53309;SDS011;39197;53.200;5.792;2024-03-23T13:00:03;5.45;;;1.45;;
53309;SDS011;39197;53.200;5.792;2024-03-23T13:02:29;8.38;;;1.33;;
53309;SDS011;39197;53.200;5.792;2024-03-23T13:04:55;11.65;;;1.33;;
53309;SDS011;39197;53.200;5.792;2024-03-23T13:07:21;7.82;;;0.90;;
53309;SDS011;39197;53.200;5.792;2024-03-23T13:09:51;6.10;;;0.45;;
53309;SDS011;39197;53.200;5.792;2024-03-23T13:12:18;8.02;;;1.27;;
53309;SDS011;39197;53.200;5.792;2024-03-23T13:14:45;15.75;;;1.08;;
53309;SDS011;39197;53.200;5.792;2024-03-23T13:17:11;12.90;;;1.73;;
53309;SDS011;39197;53.200;5.792;2024-03-23T13:19:37;9.98;;;1.13;;
53309;SDS011;39197;53.200;5.792;2024-03-23T13:22:03;10.40;;;1.55;;
53309;SDS011;39197;53.200;5.792;2024-03-23T13:24:29;8.80;;;0.98;;
53309;SDS011;39197;53.200;5.792;2024-03-23T13:26:55;11.57;;;2.42;;
53309;SDS011;39197;53.200;5.792;2024-03-23T13:29:21;10.07;;;1.35;;
53309;SDS011;39197;53.200;5.792;2024-03-23T13:31:49;10.48;;;1.83;;
53309;SDS011;39197;53.200;5.792;2024-03-23T13:34:15;12.90;;;1.73;;
53309;SDS011;39197;53.200;5.792;2024-03-23T13:36:41;6.20;;;1.48;;
53309;SDS011;39197;53.200;5.792;2024-03-23T13:39:11;13.32;;;1.85;;
53309;SDS011;39197;53.200;5.792;2024-03-23T13:41:43;11.93;;;1.00;;
53309;SDS011;39197;53.200;5.792;2024-03-23T13:44:11;9.15;;;1.50;;
53309;SDS011;39197;53.200;5.792;2024-03-23T13:46:41;9.18;;;1.90;;
53309;SDS011;39197;53.200;5.792;2024-03-23T13:49:08;11.05;;;2.58;;
53309;SDS011;39197;53.200;5.792;2024-03-23T13:51:48;12.90;;;2.03;;
53309;SDS011;39197;53.200;5.792;2024-03-23T13:54:14;13.32;;;2.58;;
53309;SDS011;39197;53.200;5.792;2024-03-23T13:56:40;14.75;;;2.13;;
53309;SDS011;39197;53.200;5.792;2024-03-23T13:59:05;17.73;;;3.05;;
53309;SDS011;39197;53.200;5.792;2024-03-23T14:01:32;13.07;;;2.15;;
53309;SDS011;39197;53.200;5.792;2024-03-23T14:03:58;13.68;;;1.85;;
53309;SDS011;39197;53.200;5.792;2024-03-23T14:06:24;13.25;;;3.38;;
53309;SDS011;39197;53.200;5.792;2024-03-23T14:08:49;15.38;;;3.03;;
53309;SDS011;39197;53.200;5.792;2024-03-23T14:11:17;15.38;;;2.15;;
53309;SDS011;39197;53.200;5.792;2024-03-23T14:13:43;17.40;;;2.22;;
53309;SDS011;39197;53.200;5.792;2024-03-23T14:16:09;12.35;;;2.00;;
53309;SDS011;39197;53.200;5.792;2024-03-23T14:18:35;10.88;;;1.58;;
53309;SDS011;39197;53.200;5.792;2024-03-23T14:21:01;12.30;;;1.88;;
53309;SDS011;39197;53.200;5.792;2024-03-23T14:23:28;14.30;;;2.88;;
53309;SDS011;39197;53.200;5.792;2024-03-23T14:25:57;8.68;;;1.55;;
53309;SDS011;39197;53.200;5.792;2024-03-23T14:28:23;11.88;;;1.52;;
53309;SDS011;39197;53.200;5.792;2024-03-23T14:30:49;11.75;;;2.03;;
53309;SDS011;39197;53.200;5.792;2024-03-23T14:33:18;6.55;;;1.25;;
53309;SDS011;39197;53.200;5.792;2024-03-23T14:35:54;11.60;;;1.63;;
53309;SDS011;39197;53.200;5.792;2024-03-23T14:38:20;13.23;;;2.97;;
53309;SDS011;39197;53.200;5.792;2024-03-23T14:40:46;15.98;;;2.35;;
53309;SDS011;39197;53.200;5.792;2024-03-23T14:43:12;18.75;;;2.45;;
53309;SDS011;39197;53.200;5.792;2024-03-23T14:45:45;9.90;;;1.40;;
53309;SDS011;39197;53.200;5.792;2024-03-23T14:50:58;13.52;;;2.38;;
53309;SDS011;39197;53.200;5.792;2024-03-23T14:53:25;16.92;;;2.70;;
53309;SDS011;39197;53.200;5.792;2024-03-23T14:55:55;9.48;;;1.58;;
53309;SDS011;39197;53.200;5.792;2024-03-23T14:58:21;10.73;;;1.55;;
53309;SDS011;39197;53.200;5.792;2024-03-23T15:00:47;13.65;;;2.88;;
53309;SDS011;39197;53.200;5.792;2024-03-23T15:03:13;17.80;;;2.25;;
53309;SDS011;39197;53.200;5.792;2024-03-23T15:05:39;12.00;;;1.58;;
53309;SDS011;39197;53.200;5.792;2024-03-23T15:08:05;17.13;;;2.10;;
53309;SDS011;39197;53.200;5.792;2024-03-23T15:10:32;19.63;;;4.05;;
53309;SDS011;39197;53.200;5.792;2024-03-23T15:12:58;13.68;;;2.45;;
53309;SDS011;39197;53.200;5.792;2024-03-23T15:15:24;15.02;;;2.50;;
53309;SDS011;39197;53.200;5.792;2024-03-23T15:17:49;12.63;;;2.25;;
53309;SDS011;39197;53.200;5.792;2024-03-23T15:20:15;7.70;;;0.90;;
53309;SDS011;39197;53.200;5.792;2024-03-23T15:22:41;8.23;;;0.88;;
53309;SDS011;39197;53.200;5.792;2024-03-23T15:25:07;10.50;;;1.80;;
53309;SDS011;39197;53.200;5.792;2024-03-23T15:27:33;8.85;;;1.40;;
53309;SDS011;39197;53.200;5.792;2024-03-23T15:29:59;9.27;;;1.42;;
53309;SDS011;39197;53.200;5.792;2024-03-23T15:32:24;12.75;;;1.75;;
53309;SDS011;39197;53.200;5.792;2024-03-23T15:34:50;18.10;;;2.60;;
53309;SDS011;39197;53.200;5.792;2024-03-23T15:37:17;14.00;;;1.65;;
53309;SDS011;39197;53.200;5.792;2024-03-23T15:39:42;12.45;;;1.40;;
53309;SDS011;39197;53.200;5.792;2024-03-23T15:42:08;11.40;;;1.83;;
53309;SDS011;39197;53.200;5.792;2024-03-23T15:44:35;5.75;;;0.82;;
53309;SDS011;39197;53.200;5.792;2024-03-23T15:47:01;7.25;;;1.67;;